createdAt,value
2019-02-03T00:01:58.501Z,131.07
2019-02-03T00:04:27.371Z,130.63
2019-02-03T00:07:03.529Z,125.17
2019-02-03T00:09:30.387Z,123.03
2019-02-03T00:11:59.057Z,123.07
2019-02-03T00:14:27.694Z,119.00
2019-02-03T00:16:56.669Z,126.33
2019-02-03T00:19:25.320Z,123.57
2019-02-03T00:21:53.976Z,116.90
2019-02-03T00:24:22.664Z,123.00
2019-02-03T00:26:51.305Z,130.33
2019-02-03T00:29:22.780Z,132.13
2019-02-03T00:31:51.414Z,149.33
2019-02-03T00:34:22.528Z,148.07
2019-02-03T00:36:51.148Z,129.93
2019-02-03T00:39:19.752Z,124.03
2019-02-03T00:41:48.375Z,130.63
2019-02-03T00:44:18.636Z,115.97
2019-02-03T00:46:47.440Z,123.43
2019-02-03T00:49:16.162Z,124.10
2019-02-03T00:51:44.848Z,118.20
2019-02-03T00:54:13.446Z,106.67
2019-02-03T00:56:42.045Z,111.47
2019-02-03T00:59:10.714Z,101.10
2019-02-03T01:01:39.399Z,100.93
2019-02-03T01:04:08.081Z,96.63
2019-02-03T01:06:36.925Z,92.13
2019-02-03T01:09:09.540Z,103.83
2019-02-03T01:11:38.530Z,105.80
2019-02-03T01:14:07.198Z,98.70
2019-02-03T01:16:35.763Z,102.93
2019-02-03T01:19:04.522Z,102.57
2019-02-03T01:21:33.151Z,97.17
2019-02-03T01:24:01.841Z,98.57
2019-02-03T01:26:30.571Z,94.23
2019-02-03T01:28:59.249Z,99.83
2019-02-03T01:31:27.913Z,91.77
2019-02-03T01:33:56.560Z,94.23
2019-02-03T01:36:25.241Z,99.67
2019-02-03T01:38:53.856Z,96.23
2019-02-03T01:41:22.531Z,95.60
2019-02-03T01:43:51.165Z,92.07
2019-02-03T01:46:19.776Z,80.00
2019-02-03T01:48:48.405Z,78.20
2019-02-03T01:51:17.018Z,70.83
2019-02-03T01:53:45.533Z,77.40
2019-02-03T01:56:14.169Z,73.20
2019-02-03T01:58:42.770Z,69.63
2019-02-03T02:01:11.336Z,73.67
2019-02-03T02:03:39.973Z,78.47
2019-02-03T02:06:08.620Z,73.67
2019-02-03T02:08:37.543Z,76.90
2019-02-03T02:11:06.497Z,73.83
2019-02-03T02:13:35.185Z,74.03
2019-02-03T02:16:03.872Z,74.47
2019-02-03T02:18:32.513Z,71.83
2019-02-03T02:21:01.167Z,72.53
2019-02-03T02:23:30.178Z,74.27
2019-02-03T02:25:58.829Z,73.97
2019-02-03T02:28:27.435Z,74.83
2019-02-03T02:30:56.057Z,71.53
2019-02-03T02:33:24.659Z,72.40
2019-02-03T02:35:53.287Z,72.77
2019-02-03T02:38:22.258Z,72.87
2019-02-03T02:40:50.798Z,75.60
2019-02-03T02:43:19.403Z,72.00
2019-02-03T02:45:48.022Z,74.17
2019-02-03T02:48:16.564Z,74.63
2019-02-03T02:50:45.352Z,75.13
2019-02-03T02:53:14.360Z,73.80
2019-02-03T02:55:45.997Z,72.07
2019-02-03T02:58:14.624Z,74.20
2019-02-03T03:00:43.265Z,72.80
2019-02-03T03:03:11.957Z,72.13
2019-02-03T03:05:40.638Z,70.37
2019-02-03T03:08:18.452Z,74.60
2019-02-03T03:10:43.537Z,73.93
2019-02-03T03:13:12.089Z,77.13
2019-02-03T03:15:40.759Z,74.00
2019-02-03T03:18:09.463Z,83.83
2019-02-03T03:20:38.430Z,85.60
2019-02-03T03:23:07.074Z,85.60
2019-02-03T03:25:35.623Z,83.87
2019-02-03T03:28:04.401Z,85.57
2019-02-03T03:30:33.100Z,89.70
2019-02-03T03:33:01.751Z,98.83
2019-02-03T03:35:33.737Z,94.30
2019-02-03T03:38:00.753Z,86.67
2019-02-03T03:40:29.979Z,84.57
2019-02-03T03:42:58.747Z,82.57
2019-02-03T03:45:28.279Z,87.97
2019-02-03T03:47:56.956Z,88.23
2019-02-03T03:50:25.520Z,88.77
2019-02-03T03:52:54.197Z,82.07
2019-02-03T03:55:22.861Z,84.07
2019-02-03T03:57:51.505Z,80.27
2019-02-03T04:00:24.608Z,81.03
2019-02-03T04:02:53.295Z,82.50
2019-02-03T04:05:21.944Z,80.47
2019-02-03T04:07:50.954Z,77.23
2019-02-03T04:10:24.153Z,77.53
2019-02-03T04:12:52.803Z,79.97
2019-02-03T04:15:22.342Z,80.47
2019-02-03T04:17:51.064Z,78.40
2019-02-03T04:20:27.839Z,76.40
2019-02-03T04:22:56.480Z,83.47
2019-02-03T04:25:25.110Z,78.57
2019-02-03T04:27:53.856Z,69.13
2019-02-03T04:30:29.963Z,71.17
2019-02-03T04:32:58.575Z,56.60
2019-02-03T04:35:27.262Z,54.20
2019-02-03T04:37:55.901Z,50.27
2019-02-03T04:40:24.521Z,51.57
2019-02-03T04:42:53.147Z,50.70
2019-02-03T04:45:22.705Z,52.00
2019-02-03T04:47:51.750Z,54.03
2019-02-03T04:50:22.546Z,55.00
2019-02-03T04:52:51.172Z,51.83
2019-02-03T04:55:21.323Z,52.03
2019-02-03T04:57:50.466Z,52.10
2019-02-03T05:00:23.752Z,51.50
2019-02-03T05:02:52.435Z,51.97
2019-02-03T05:05:21.165Z,49.27
2019-02-03T05:07:49.846Z,46.83
2019-02-03T05:10:19.546Z,48.57
2019-02-03T05:12:48.290Z,48.33
2019-02-03T05:15:19.700Z,47.07
2019-02-03T05:17:48.495Z,48.10
2019-02-03T05:20:19.123Z,49.43
2019-02-03T05:22:48.035Z,49.07
2019-02-03T05:25:16.705Z,46.90
2019-02-03T05:27:45.282Z,50.17
2019-02-03T05:30:16.669Z,59.20
2019-02-03T05:32:45.306Z,69.30
2019-02-03T05:35:13.998Z,53.97
2019-02-03T05:37:42.555Z,53.00
2019-02-03T05:40:13.893Z,53.80
2019-02-03T05:42:45.194Z,57.60
2019-02-03T05:45:20.307Z,53.03
2019-02-03T05:47:50.239Z,53.27
2019-02-03T05:50:21.216Z,48.90
2019-02-03T05:52:49.846Z,53.70
2019-02-03T05:55:19.194Z,55.63
2019-02-03T05:57:47.829Z,55.87
2019-02-03T06:00:20.813Z,57.13
2019-02-03T06:02:49.423Z,51.10
2019-02-03T06:05:18.056Z,50.57
2019-02-03T06:07:46.735Z,50.67
2019-02-03T06:10:17.785Z,49.83
2019-02-03T06:12:46.526Z,50.37
2019-02-03T06:15:15.961Z,47.90
2019-02-03T06:17:44.598Z,49.30
2019-02-03T06:20:17.959Z,49.80
2019-02-03T06:22:47.346Z,50.23
2019-02-03T06:25:16.392Z,52.80
2019-02-03T06:27:45.080Z,52.83
2019-02-03T06:30:25.451Z,57.90
2019-02-03T06:32:54.136Z,57.97
2019-02-03T06:35:22.772Z,61.07
2019-02-03T06:37:51.390Z,60.10
2019-02-03T06:40:20.590Z,58.40
2019-02-03T06:42:49.218Z,58.20
2019-02-03T06:45:26.676Z,58.53
2019-02-03T06:47:55.301Z,60.83
2019-02-03T06:50:23.925Z,58.03
2019-02-03T06:52:52.918Z,65.73
2019-02-03T06:55:21.610Z,65.03
2019-02-03T06:57:50.223Z,65.00
2019-02-03T07:00:19.006Z,65.47
2019-02-03T07:02:47.692Z,63.50
2019-02-03T07:05:16.393Z,64.67
2019-02-03T07:07:45.420Z,57.70
2019-02-03T07:10:14.226Z,59.23
2019-02-03T07:12:42.835Z,64.40
2019-02-03T07:15:11.973Z,62.17
2019-02-03T07:17:40.587Z,62.63
2019-02-03T07:20:18.164Z,62.37
2019-02-03T07:22:52.501Z,58.00
2019-02-03T07:25:23.936Z,52.57
2019-02-03T07:27:55.499Z,51.27
2019-02-03T07:30:26.489Z,53.43
2019-02-03T07:32:55.290Z,50.67
2019-02-03T07:35:26.656Z,48.07
2019-02-03T07:37:55.271Z,48.23
2019-02-03T07:40:23.950Z,44.37
2019-02-03T07:42:52.577Z,54.00
2019-02-03T07:45:21.149Z,46.57
2019-02-03T07:47:49.721Z,44.27
2019-02-03T07:50:18.340Z,40.83
2019-02-03T07:52:46.981Z,40.57
2019-02-03T07:55:19.458Z,43.87
2019-02-03T07:57:47.996Z,42.97
2019-02-03T08:00:19.797Z,41.67
2019-02-03T08:02:48.576Z,41.50
2019-02-03T08:05:17.365Z,45.07
2019-02-03T08:07:45.980Z,44.17
2019-02-03T08:10:26.435Z,49.33
2019-02-03T08:12:47.746Z,65.60
2019-02-03T08:15:17.780Z,53.63
2019-02-03T08:17:46.406Z,61.60
2019-02-03T08:20:26.485Z,90.87
2019-02-03T08:22:55.215Z,94.17
2019-02-03T08:25:23.873Z,85.70
2019-02-03T08:27:52.542Z,73.63
2019-02-03T08:30:29.852Z,71.93
2019-02-03T08:32:58.683Z,75.13
2019-02-03T08:35:27.371Z,80.97
2019-02-03T08:37:56.053Z,79.73
2019-02-03T08:40:36.714Z,74.33
2019-02-03T08:42:59.626Z,75.40
2019-02-03T08:45:28.310Z,75.13
2019-02-03T08:47:56.944Z,78.70
2019-02-03T08:50:26.026Z,73.40
2019-02-03T08:52:55.222Z,76.00
2019-02-03T08:55:23.907Z,71.17
2019-02-03T08:57:52.544Z,73.87
2019-02-03T09:00:29.747Z,74.57
2019-02-03T09:02:58.454Z,74.83
2019-02-03T09:05:27.606Z,75.20
2019-02-03T09:07:56.290Z,73.57
2019-02-03T09:10:26.034Z,55.33
2019-02-03T09:12:54.728Z,57.40
2019-02-03T09:15:29.906Z,49.63
2019-02-03T09:17:58.545Z,50.87
2019-02-03T09:20:34.409Z,55.90
2019-02-03T09:23:03.214Z,55.83
2019-02-03T09:25:31.875Z,53.63
2019-02-03T09:28:00.561Z,53.77
2019-02-03T09:30:37.617Z,53.13
2019-02-03T09:33:07.710Z,52.50
2019-02-03T09:35:36.338Z,42.43
2019-02-03T09:38:05.182Z,45.60
2019-02-03T09:40:34.956Z,42.73
2019-02-03T09:43:03.593Z,44.00
2019-02-03T09:45:32.559Z,44.77
2019-02-03T09:48:01.187Z,44.07
2019-02-03T09:50:32.855Z,46.90
2019-02-03T09:53:02.698Z,47.63
2019-02-03T09:55:31.990Z,45.97
2019-02-03T09:58:01.339Z,51.70
2019-02-03T10:00:37.330Z,54.77
2019-02-03T10:03:11.580Z,53.57
2019-02-03T10:05:43.150Z,48.47
2019-02-03T10:08:11.836Z,47.33
2019-02-03T10:10:42.051Z,51.03
2019-02-03T10:13:10.734Z,51.47
2019-02-03T10:15:39.299Z,53.07
2019-02-03T10:18:09.542Z,45.67
2019-02-03T10:20:38.176Z,49.73
2019-02-03T10:23:09.816Z,48.20
2019-02-03T10:25:38.439Z,49.90
2019-02-03T10:28:07.237Z,48.13
2019-02-03T10:30:35.939Z,51.00
2019-02-03T10:33:05.264Z,53.43
2019-02-03T10:35:34.897Z,55.83
2019-02-03T10:38:06.988Z,56.23
2019-02-03T10:40:41.273Z,57.27
2019-02-03T10:43:10.556Z,59.17
2019-02-03T10:45:39.207Z,54.97
2019-02-03T10:48:07.865Z,56.97
2019-02-03T10:50:39.079Z,64.53
2019-02-03T10:53:10.673Z,50.83
2019-02-03T10:55:39.308Z,54.57
2019-02-03T10:58:10.932Z,63.63
2019-02-03T11:00:42.285Z,52.30
2019-02-03T11:03:13.638Z,53.10
2019-02-03T11:05:44.765Z,53.20
2019-02-03T11:08:15.203Z,52.57
2019-02-03T11:10:44.469Z,70.50
2019-02-03T11:13:13.190Z,58.50
2019-02-03T11:15:41.874Z,53.40
2019-02-03T11:18:10.957Z,44.97
2019-02-03T11:20:39.664Z,68.27
2019-02-03T11:23:08.399Z,49.03
2019-02-03T11:25:37.064Z,102.60
2019-02-03T11:28:06.111Z,45.37
2019-02-03T11:30:34.883Z,40.63
2019-02-03T11:33:06.051Z,42.17
2019-02-03T11:35:33.902Z,42.43
2019-02-03T11:38:02.537Z,41.80
2019-02-03T11:40:33.776Z,42.73
2019-02-03T11:43:05.753Z,39.63
2019-02-03T11:45:41.532Z,40.03
2019-02-03T11:48:15.465Z,38.10
2019-02-03T11:50:45.411Z,39.97
2019-02-03T11:53:16.812Z,33.93
2019-02-03T11:55:45.438Z,38.67
2019-02-03T11:58:14.179Z,37.83
2019-02-03T12:00:45.639Z,37.97
2019-02-03T12:03:14.278Z,36.97
2019-02-03T12:05:42.953Z,35.50
2019-02-03T12:08:11.583Z,37.23
2019-02-03T12:10:40.194Z,36.33
2019-02-03T12:13:09.027Z,34.60
2019-02-03T12:15:38.045Z,35.73
2019-02-03T12:18:07.028Z,55.67
2019-02-03T12:20:35.656Z,60.93
2019-02-03T12:23:04.448Z,60.93
2019-02-03T12:25:41.330Z,60.10
2019-02-03T12:28:10.494Z,69.70
2019-02-03T12:30:39.234Z,63.23
2019-02-03T12:33:08.349Z,67.30
2019-02-03T12:35:39.942Z,67.73
2019-02-03T12:38:08.583Z,70.43
2019-02-03T12:40:44.198Z,71.37
2019-02-03T12:43:12.836Z,68.90
2019-02-03T12:45:41.521Z,66.70
2019-02-03T12:48:10.468Z,68.67
2019-02-03T12:50:39.145Z,68.50
2019-02-03T12:53:08.267Z,71.07
2019-02-03T12:55:39.884Z,73.53
2019-02-03T12:58:08.567Z,75.17
2019-02-03T13:00:37.793Z,78.97
2019-02-03T13:03:08.276Z,74.50
2019-02-03T13:05:36.963Z,82.23
2019-02-03T13:08:06.698Z,79.17
2019-02-03T13:10:37.504Z,84.37
2019-02-03T13:13:07.887Z,87.87
2019-02-03T13:15:45.396Z,90.03
2019-02-03T13:18:14.210Z,90.03
2019-02-03T13:20:43.233Z,92.97
2019-02-03T13:23:12.023Z,92.77
2019-02-03T13:25:43.389Z,92.13
2019-02-03T13:28:12.062Z,92.07
2019-02-03T13:30:42.816Z,87.63
2019-02-03T13:33:11.548Z,86.47
2019-02-03T13:35:40.242Z,81.37
2019-02-03T13:38:09.274Z,84.50
2019-02-03T13:40:40.896Z,82.77
2019-02-03T13:43:09.583Z,88.53
2019-02-03T13:45:38.805Z,96.53
2019-02-03T13:48:07.990Z,96.77
2019-02-03T13:50:36.639Z,100.50
2019-02-03T13:53:05.421Z,107.90
2019-02-03T13:55:34.055Z,114.97
2019-02-03T13:58:02.741Z,107.63
2019-02-03T14:00:37.134Z,99.50
2019-02-03T14:03:08.693Z,96.60
2019-02-03T14:05:37.319Z,77.97
2019-02-03T14:08:05.968Z,78.23
2019-02-03T14:10:35.956Z,79.90
2019-02-03T14:13:08.965Z,77.00
2019-02-03T14:15:40.490Z,77.07
2019-02-03T14:18:09.219Z,78.80
2019-02-03T14:20:37.906Z,77.10
2019-02-03T14:23:06.651Z,76.33
2019-02-03T14:25:38.519Z,77.27
2019-02-03T14:28:07.267Z,72.57
2019-02-03T14:30:41.651Z,71.70
2019-02-03T14:33:10.574Z,66.30
2019-02-03T14:35:39.308Z,67.27
2019-02-03T14:38:10.524Z,67.47
2019-02-03T14:40:39.165Z,67.63
2019-02-03T14:43:07.854Z,62.80
2019-02-03T14:45:37.887Z,59.60
2019-02-03T14:48:09.580Z,57.13
2019-02-03T14:50:38.494Z,57.57
2019-02-03T14:53:09.648Z,57.63
2019-02-03T14:55:41.061Z,58.43
2019-02-03T14:58:09.846Z,57.80
2019-02-03T15:00:49.189Z,57.30
2019-02-03T15:03:19.319Z,55.70
2019-02-03T15:05:47.985Z,57.83
2019-02-03T15:08:19.768Z,66.57
2019-02-03T15:10:48.408Z,78.10
2019-02-03T15:13:17.113Z,83.73
2019-02-03T15:15:45.948Z,84.23
2019-02-03T15:18:14.666Z,97.03
2019-02-03T15:20:44.224Z,100.23
2019-02-03T15:23:15.973Z,93.93
2019-02-03T15:25:50.367Z,80.07
2019-02-03T15:28:19.161Z,84.47
2019-02-03T15:30:49.337Z,79.63
2019-02-03T15:33:17.981Z,70.07
2019-02-03T15:35:46.662Z,70.87
2019-02-03T15:38:15.293Z,75.63
2019-02-03T15:40:47.436Z,88.13
2019-02-03T15:43:25.082Z,95.57
2019-02-03T15:45:49.183Z,100.63
2019-02-03T15:48:20.689Z,100.63
2019-02-03T15:50:49.223Z,96.33
2019-02-03T15:53:20.977Z,100.10
2019-02-03T15:55:52.622Z,96.73
2019-02-03T15:58:24.600Z,108.40
2019-02-03T16:00:53.887Z,91.90
2019-02-03T16:03:25.490Z,99.80
2019-02-03T16:05:57.735Z,91.53
2019-02-03T16:08:29.689Z,95.90
2019-02-03T16:10:58.248Z,98.07
2019-02-03T16:13:36.799Z,96.33
2019-02-03T16:15:59.930Z,100.83
2019-02-03T16:18:28.662Z,96.93
2019-02-03T16:20:57.399Z,133.03
2019-02-03T16:23:26.217Z,146.27
2019-02-03T16:25:54.897Z,131.03
2019-02-03T16:28:23.454Z,135.47
2019-02-03T16:30:55.331Z,150.43
2019-02-03T16:33:26.961Z,198.87
2019-02-03T16:35:55.615Z,187.77
2019-02-03T16:38:27.183Z,196.93
2019-02-03T16:40:55.855Z,161.93
2019-02-03T16:43:24.496Z,165.47
2019-02-03T16:45:53.078Z,128.10
2019-02-03T16:48:24.517Z,130.77
2019-02-03T16:50:53.253Z,126.70
2019-02-03T16:53:21.982Z,131.93
2019-02-03T16:55:53.601Z,126.97
2019-02-03T16:58:28.442Z,125.33
2019-02-03T17:00:59.491Z,129.23
2019-02-03T17:03:28.126Z,125.10
2019-02-03T17:05:56.807Z,127.60
2019-02-03T17:08:25.517Z,139.43
2019-02-03T17:10:54.244Z,138.60
2019-02-03T17:13:23.316Z,143.37
2019-02-03T17:15:56.211Z,146.47
2019-02-03T17:18:27.660Z,179.00
2019-02-03T17:21:01.855Z,165.73
2019-02-03T17:23:27.635Z,155.83
2019-02-03T17:25:59.479Z,149.43
2019-02-03T17:28:29.649Z,149.63
2019-02-03T17:30:58.367Z,159.23
2019-02-03T17:33:31.554Z,153.67
2019-02-03T17:36:00.275Z,156.63
2019-02-03T17:38:29.342Z,148.50
2019-02-03T17:40:58.084Z,144.80
2019-02-03T17:43:26.723Z,146.97
2019-02-03T17:45:55.412Z,161.23
2019-02-03T17:48:24.043Z,151.33
2019-02-03T17:50:53.219Z,143.90
2019-02-03T17:53:21.938Z,147.87
2019-02-03T17:55:53.618Z,153.80
2019-02-03T17:58:25.976Z,138.07
2019-02-03T18:00:56.238Z,175.37
2019-02-03T18:03:24.911Z,200.40
2019-02-03T18:05:56.524Z,177.57
2019-02-03T18:08:25.222Z,222.73
2019-02-03T18:10:53.863Z,200.33
2019-02-03T18:13:22.496Z,207.80
2019-02-03T18:15:54.120Z,197.10
2019-02-03T18:18:22.764Z,168.40
2019-02-03T18:20:51.716Z,184.50
2019-02-03T18:23:20.360Z,155.00
2019-02-03T18:25:49.058Z,169.10
2019-02-03T18:28:17.659Z,159.57
2019-02-03T18:30:49.144Z,138.17
2019-02-03T18:33:17.820Z,135.00
2019-02-03T18:35:49.261Z,129.07
2019-02-03T18:38:17.895Z,136.37
2019-02-03T18:40:46.615Z,136.20
2019-02-03T18:43:18.233Z,135.23
2019-02-03T18:45:49.999Z,143.00
2019-02-03T18:48:18.816Z,143.83
2019-02-03T18:50:51.396Z,159.23
2019-02-03T18:53:20.109Z,146.17
2019-02-03T18:55:48.816Z,147.83
2019-02-03T18:58:21.731Z,170.07
2019-02-03T19:00:53.943Z,193.40
2019-02-03T19:03:27.004Z,156.77
2019-02-03T19:05:55.651Z,162.97
2019-02-03T19:08:24.396Z,160.63
2019-02-03T19:10:53.077Z,157.77
2019-02-03T19:13:24.476Z,161.03
2019-02-03T19:15:53.110Z,157.77
2019-02-03T19:18:24.438Z,163.00
2019-02-03T19:20:52.985Z,165.60
2019-02-03T19:23:21.671Z,168.07
2019-02-03T19:25:53.477Z,164.27
2019-02-03T19:28:22.166Z,170.53
2019-02-03T19:30:50.802Z,178.00
2019-02-03T19:33:19.535Z,171.07
2019-02-03T19:35:50.963Z,180.43
2019-02-03T19:38:22.264Z,185.30
2019-02-03T19:40:51.444Z,178.23
2019-02-03T19:43:24.959Z,177.80
2019-02-03T19:45:53.272Z,181.17
2019-02-03T19:48:21.959Z,180.50
2019-02-03T19:50:50.545Z,184.63
2019-02-03T19:53:19.229Z,193.67
2019-02-03T19:55:47.795Z,193.33
2019-02-03T19:58:18.744Z,192.30
2019-02-03T20:00:47.440Z,202.63
2019-02-03T20:03:16.082Z,232.10
2019-02-03T20:05:44.727Z,240.47
2019-02-03T20:08:13.398Z,290.53
2019-02-03T20:10:42.056Z,284.50
2019-02-03T20:13:13.760Z,288.43
2019-02-03T20:15:42.420Z,274.27
2019-02-03T20:18:11.109Z,258.57
2019-02-03T20:20:41.047Z,267.13
2019-02-03T20:23:10.068Z,267.43
2019-02-03T20:25:38.752Z,245.87
2019-02-03T20:28:07.980Z,245.97
2019-02-03T20:30:38.971Z,231.93
2019-02-03T20:33:07.126Z,229.67
2019-02-03T20:35:35.804Z,236.97
2019-02-03T20:38:05.522Z,252.90
2019-02-03T20:40:39.270Z,245.43
2019-02-03T20:43:07.910Z,245.80
2019-02-03T20:45:48.456Z,230.00
2019-02-03T20:48:06.885Z,238.80
2019-02-03T20:50:35.584Z,224.73
2019-02-03T20:53:04.236Z,194.57
2019-02-03T20:55:32.912Z,210.47
2019-02-03T20:58:01.609Z,221.23
2019-02-03T21:00:37.971Z,226.80
2019-02-03T21:03:07.214Z,214.40
2019-02-03T21:05:36.090Z,206.30
2019-02-03T21:08:04.943Z,208.27
2019-02-03T21:10:40.345Z,212.37
2019-02-03T21:13:11.407Z,200.27
2019-02-03T21:15:39.363Z,188.97
2019-02-03T21:18:08.402Z,197.07
2019-02-03T21:20:37.056Z,205.83
2019-02-03T21:23:05.945Z,203.33
2019-02-03T21:25:34.590Z,194.50
2019-02-03T21:28:03.230Z,187.60
2019-02-03T21:30:34.442Z,184.93
2019-02-03T21:33:10.376Z,188.83
2019-02-03T21:35:41.690Z,191.60
2019-02-03T21:38:10.333Z,189.73
2019-02-03T21:40:38.963Z,194.53
2019-02-03T21:43:07.793Z,187.37
2019-02-03T21:45:44.337Z,175.90
2019-02-03T21:48:07.172Z,181.57
2019-02-03T21:50:35.857Z,177.83
2019-02-03T21:53:04.590Z,168.57
2019-02-03T21:55:33.296Z,164.27
2019-02-03T21:58:01.989Z,160.00
2019-02-03T22:00:33.852Z,155.80
2019-02-03T22:03:02.519Z,149.50
2019-02-03T22:05:31.300Z,143.17
2019-02-03T22:08:00.118Z,153.13
2019-02-03T22:10:36.841Z,150.20
2019-02-03T22:13:08.645Z,150.17
2019-02-03T22:15:37.319Z,153.20
2019-02-03T22:18:05.958Z,164.33
2019-02-03T22:20:34.517Z,151.03
2019-02-03T22:23:03.129Z,149.53
2019-02-03T22:25:32.200Z,148.17
2019-02-03T22:28:03.922Z,147.30
2019-02-03T22:30:37.804Z,144.40
2019-02-03T22:33:06.785Z,137.03
2019-02-03T22:35:35.414Z,138.80
2019-02-03T22:38:04.528Z,145.50
2019-02-03T22:40:33.225Z,143.40
2019-02-03T22:43:03.154Z,138.50
2019-02-03T22:45:31.865Z,139.00
2019-02-03T22:48:00.552Z,157.57
2019-02-03T22:50:34.196Z,175.23
2019-02-03T22:53:02.818Z,179.47
2019-02-03T22:55:31.461Z,167.30
2019-02-03T22:58:00.147Z,184.90
2019-02-03T23:00:44.265Z,170.50
2019-02-03T23:03:13.323Z,169.70
2019-02-03T23:05:41.961Z,166.70
2019-02-03T23:08:10.649Z,145.77
2019-02-03T23:10:39.340Z,150.73
2019-02-03T23:13:10.987Z,158.90
2019-02-03T23:15:39.872Z,157.03
2019-02-03T23:18:11.594Z,155.97
2019-02-03T23:20:40.286Z,149.13
2019-02-03T23:23:08.858Z,147.37
2019-02-03T23:25:37.543Z,146.40
2019-02-03T23:28:06.207Z,152.37
2019-02-03T23:30:34.854Z,163.93
2019-02-03T23:33:03.540Z,147.87
2019-02-03T23:35:32.181Z,138.27
2019-02-03T23:38:00.818Z,137.67
2019-02-03T23:40:29.497Z,132.40
2019-02-03T23:42:58.921Z,123.00
2019-02-03T23:45:27.616Z,129.83
2019-02-03T23:47:56.381Z,133.80
2019-02-03T23:50:25.049Z,135.57
2019-02-03T23:52:53.723Z,121.13
2019-02-03T23:55:22.349Z,127.73
2019-02-03T23:57:50.993Z,122.40
